Time;durP1;ratioP1;P1;durP2;ratioP2;P2;SDS_P1;SDS_P2;PMS_P1;PMS_P2;Temp;Humidity;BMP_temperature;BMP_pressure;BME280_temperature;BME280_humidity;BME280_pressure;Samples;Min_cycle;Max_cycle;Signal;HPM_P1;HPM_P2
2022/08/25 00:01:30;;;;;;;12.98;5.45;;;;;;;22.22;69.99;99849.50;7771695;32;40839;-72
2022/08/25 00:05:47;;;;;;;12.52;5.62;;;;;;;22.24;70.17;99848.00;7771535;32;38599;-72
2022/08/25 00:10:05;;;;;;;17.23;5.75;;;;;;;22.34;69.77;99846.75;7771543;32;38232;-72
2022/08/25 00:14:28;;;;;;;;;;;;;;;22.40;69.50;99844.53;7751732;32;40148;-71
2022/08/25 00:18:55;;;;;;;12.88;5.60;;;;;;;22.39;69.57;99838.19;7744629;32;41955;-72
2022/08/25 00:23:17;;;;;;;12.75;5.47;;;;;;;22.38;69.48;99841.31;7743448;32;38697;-72
2022/08/25 00:27:38;;;;;;;14.95;5.50;;;;;;;22.26;69.75;99842.09;7739457;32;38845;-71
2022/08/25 00:31:59;;;;;;;11.45;5.22;;;;;;;22.30;69.82;99834.69;7741153;32;40108;-71
2022/08/25 00:36:20;;;;;;;9.02;5.37;;;;;;;22.20;70.30;99829.62;7764852;32;40742;-72
2022/08/25 00:40:42;;;;;;;16.50;5.70;;;;;;;22.40;69.46;99828.66;7766185;32;38741;-71
2022/08/25 00:45:06;;;;;;;9.38;5.50;;;;;;;22.08;70.45;99833.22;7742128;32;38796;-71
2022/08/25 00:49:42;;;;;;;19.48;5.47;;;;;;;22.35;69.47;99819.78;7739132;32;40981;-72
2022/08/25 00:54:04;;;;;;;12.25;5.70;;;;;;;22.34;69.52;99818.97;7738983;32;40746;-72
2022/08/25 00:58:29;;;;;;;17.65;5.62;;;;;;;22.29;69.63;99822.00;7751195;32;39716;-71
2022/08/25 01:02:45;;;;;;;10.23;4.62;;;;;;;22.23;69.56;99824.19;7766103;32;37165;-71
2022/08/25 01:07:02;;;;;;;17.45;4.90;;;;;;;22.27;69.28;99824.28;7765536;32;39341;-71
2022/08/25 01:11:19;;;;;;;14.02;5.65;;;;;;;22.27;69.05;99818.72;7765341;32;39987;-70
2022/08/25 01:15:35;;;;;;;14.93;5.40;;;;;;;22.22;69.11;99816.19;7737561;32;37566;-72
2022/08/25 01:19:54;;;;;;;18.02;5.90;;;;;;;22.22;69.10;99821.75;7738828;32;37105;-71
2022/08/25 01:24:14;;;;;;;21.55;5.95;;;;;;;22.26;68.89;99814.31;7738657;32;40098;-71
2022/08/25 01:28:31;;;;;;;15.35;5.72;;;;;;;22.23;68.98;99815.03;7741474;32;39720;-71
2022/08/25 01:32:47;;;;;;;16.10;5.12;;;;;;;22.28;68.55;99814.81;7764225;32;38578;-71
2022/08/25 01:37:04;;;;;;;13.13;5.40;;;;;;;22.41;67.78;99818.37;7763793;32;37406;-71
2022/08/25 01:41:54;;;;;;;15.60;5.55;;;;;;;22.40;67.60;99812.00;7765512;32;39257;-72
2022/08/25 01:46:11;;;;;;;17.15;4.95;;;;;;;22.13;68.64;99808.00;7736873;32;39834;-72
2022/08/25 01:50:27;;;;;;;12.37;5.55;;;;;;;22.06;68.80;99816.06;7738273;32;38069;-72
2022/08/25 01:54:44;;;;;;;10.43;4.72;;;;;;;22.01;68.87;99827.41;7738346;32;37212;-72
2022/08/25 01:59:00;;;;;;;12.90;5.28;;;;;;;21.88;69.03;99821.06;7738503;32;39477;-72
2022/08/25 02:03:18;;;;;;;11.25;4.68;;;;;;;22.17;67.84;99813.66;7738138;32;40765;-72
2022/08/25 02:07:35;;;;;;;16.08;5.85;;;;;;;22.25;66.90;99813.53;7738116;32;38708;-72
2022/08/25 02:11:52;;;;;;;12.88;5.62;;;;;;;22.03;67.67;99820.38;7738222;32;37860;-72
2022/08/25 02:16:09;;;;;;;14.30;5.05;;;;;;;21.89;68.16;99817.16;7745854;32;39459;-72
2022/08/25 02:20:25;;;;;;;15.38;5.50;;;;;;;22.29;66.64;99811.69;7765050;32;40536;-72
2022/08/25 02:24:41;;;;;;;20.10;5.72;;;;;;;21.87;68.04;99808.34;7763361;32;38778;-71
2022/08/25 02:28:57;;;;;;;10.52;5.43;;;;;;;21.73;68.54;99814.25;7764973;32;37189;-71
2022/08/25 02:33:13;;;;;;;13.80;5.32;;;;;;;21.87;68.02;99816.66;7764866;32;39213;-71
2022/08/25 02:37:30;;;;;;;14.35;6.20;;;;;;;21.91;67.70;99817.63;7764471;32;40827;-71
2022/08/25 02:41:46;;;;;;;13.05;5.37;;;;;;;21.92;67.88;99820.03;7764838;32;37942;-71
2022/08/25 02:46:02;;;;;;;14.10;5.82;;;;;;;21.76;68.54;99817.13;7756853;32;37117;-71
2022/08/25 02:50:21;;;;;;;20.48;6.55;;;;;;;21.74;68.89;99810.31;7737116;32;40172;-72
2022/08/25 02:54:37;;;;;;;15.90;6.45;;;;;;;21.82;68.89;99814.97;7737488;32;40593;-72
2022/08/25 02:58:53;;;;;;;13.62;6.35;;;;;;;21.86;68.75;99807.53;7737324;32;37574;-71
2022/08/25 03:03:09;;;;;;;9.63;4.65;;;;;;;21.73;69.09;99815.06;7737186;32;37403;-72
2022/08/25 03:07:25;;;;;;;14.25;4.50;;;;;;;21.70;69.26;99818.53;7737207;32;39363;-71
2022/08/25 03:11:42;;;;;;;12.32;4.53;;;;;;;21.76;68.75;99811.59;7747617;32;40748;-72
2022/08/25 03:16:00;;;;;;;8.32;4.53;;;;;;;21.68;68.97;99806.97;7756818;32;38775;-71
2022/08/25 03:20:18;;;;;;;10.30;4.30;;;;;;;21.65;68.73;99812.41;7736998;32;37189;-72
2022/08/25 03:24:34;;;;;;;7.30;4.00;;;;;;;21.78;68.04;99810.44;7735451;32;39310;-72
2022/08/25 03:28:50;;;;;;;10.50;4.32;;;;;;;22.02;66.57;99820.72;7736674;32;40796;-72
2022/08/25 03:33:06;;;;;;;11.95;4.75;;;;;;;21.90;66.87;99818.75;7736471;32;38123;-72
2022/08/25 03:37:22;;;;;;;9.07;4.18;;;;;;;21.63;67.74;99823.84;7736290;32;37822;-72
2022/08/25 03:41:38;;;;;;;7.07;4.00;;;;;;;21.46;68.22;99824.03;7736249;32;39471;-71
2022/08/25 03:45:55;;;;;;;9.55;4.22;;;;;;;21.76;67.11;99828.22;7742072;32;39714;-71
2022/08/25 03:50:12;;;;;;;13.20;4.22;;;;;;;21.58;67.48;99810.22;7763106;32;38703;-71
2022/08/25 03:54:28;;;;;;;8.65;4.20;;;;;;;21.48;67.84;99810.66;7763038;32;37191;-72
2022/08/25 03:58:45;;;;;;;11.15;5.50;;;;;;;21.45;67.99;99808.53;7762954;32;40111;-71
2022/08/25 04:03:01;;;;;;;11.45;5.60;;;;;;;21.36;68.43;99805.88;7766024;32;40611;-72
2022/08/25 04:07:17;;;;;;;17.83;6.03;;;;;;;21.39;68.37;99807.97;7766553;32;38719;-72
2022/08/25 04:11:33;;;;;;;13.57;5.62;;;;;;;21.24;69.12;99822.47;7748496;32;37869;-71
2022/08/25 04:15:49;;;;;;;10.43;4.72;;;;;;;21.30;69.02;99827.47;7744720;32;39306;-71
2022/08/25 04:20:08;;;;;;;8.32;4.15;;;;;;;21.32;68.95;99814.06;7766430;32;39984;-71
2022/08/25 04:24:28;;;;;;;7.40;3.45;;;;;;;21.25;68.94;99822.16;7766009;32;37988;-72
2022/08/25 04:28:45;;;;;;;5.87;3.65;;;;;;;21.34;68.51;99810.97;7766426;32;37404;-70
2022/08/25 04:33:01;;;;;;;5.28;3.33;;;;;;;21.30;68.69;99813.59;7766432;32;39390;-72
2022/08/25 04:37:17;;;;;;;6.43;3.50;;;;;;;21.22;68.95;99811.72;7766093;32;39934;-71
2022/08/25 04:41:33;;;;;;;4.68;3.15;;;;;;;21.28;68.89;99817.87;7762346;32;37885;-72
2022/08/25 04:45:50;;;;;;;6.93;3.20;;;;;;;21.32;68.93;99811.28;7760626;32;37069;-72
2022/08/25 04:50:07;;;;;;;4.45;3.30;;;;;;;21.20;69.51;99812.06;7739209;32;39106;-71
2022/08/25 04:54:23;;;;;;;7.80;3.40;;;;;;;21.40;68.95;99804.00;7738989;32;39965;-71
2022/08/25 04:58:40;;;;;;;13.13;3.75;;;;;;;21.48;68.75;99803.13;7738977;32;38806;-71
2022/08/25 05:02:56;;;;;;;7.50;3.62;;;;;;;21.44;68.75;99804.13;7738990;32;37901;-72
2022/08/25 05:07:12;;;;;;;9.23;4.00;;;;;;;21.34;69.18;99799.88;7738873;32;39309;-71
2022/08/25 05:11:28;;;;;;;13.98;4.00;;;;;;;21.53;68.59;99802.91;7738475;32;39939;-72
2022/08/25 05:15:58;;;;;;;4.68;3.42;;;;;;;21.50;68.96;99802.78;7743635;32;38723;-79
2022/08/25 05:20:15;;;;;;;38.85;5.12;;;;;;;21.93;68.12;99793.09;7765859;32;36813;-78
2022/08/25 05:24:31;;;;;;;39.20;4.53;;;;;;;21.90;68.81;99796.56;7765409;32;38985;-72
2022/08/25 05:28:50;;;;;;;18.75;4.78;;;;;;;21.82;68.66;99797.47;7741690;32;40735;-77
2022/08/25 05:33:06;;;;;;;18.58;4.53;;;;;;;21.91;68.50;99801.75;7738669;32;37843;-78
2022/08/25 05:37:22;;;;;;;4.53;3.22;;;;;;;22.06;68.01;99803.03;7750058;32;37196;-78
2022/08/25 05:41:38;;;;;;;6.85;3.40;;;;;;;22.24;68.25;99797.22;7762588;32;39600;-72
2022/08/25 05:45:56;;;;;;;6.93;4.05;;;;;;;22.26;68.15;99801.25;7763411;32;40030;-73
2022/08/25 05:50:12;;;;;;;6.32;4.12;;;;;;;22.46;67.87;99796.72;7764161;32;37409;-72
2022/08/25 05:54:30;;;;;;;12.55;4.53;;;;;;;22.58;67.86;99800.63;7765116;32;37275;-72
2022/08/25 05:58:46;;;;;;;9.88;4.65;;;;;;;22.67;67.96;99795.72;7763688;32;39342;-72
2022/08/25 06:03:02;;;;;;;11.75;4.80;;;;;;;22.63;67.97;99801.19;7764655;32;39783;-72
2022/08/25 06:07:19;;;;;;;9.27;4.87;;;;;;;22.86;67.46;99795.87;7763774;32;37949;-72
2022/08/25 06:11:36;;;;;;;8.50;4.03;;;;;;;22.96;67.61;99797.34;7757168;32;36797;-81
2022/08/25 06:15:57;;;;;;;13.52;5.30;;;;;;;23.32;67.15;99803.06;7759511;32;40630;-80
2022/08/25 06:20:16;;;;;;;11.95;5.03;;;;;;;23.60;66.72;99800.22;7737536;32;39853;-82
2022/08/25 06:24:33;;;;;;;14.10;5.28;;;;;;;23.54;66.79;99794.13;7738040;32;37545;-80
2022/08/25 06:28:50;;;;;;;10.45;5.37;;;;;;;23.59;67.66;99793.00;7762432;32;36762;-80
2022/08/25 06:33:06;;;;;;;10.27;4.95;;;;;;;24.02;66.72;99804.41;7760222;32;39332;-80
2022/08/25 06:37:22;;;;;;;9.38;4.87;;;;;;;23.82;67.12;99796.00;7735707;32;40708;-72
2022/08/25 06:41:40;;;;;;;10.15;4.80;;;;;;;23.86;67.28;99804.44;7739356;32;38609;-72
2022/08/25 06:45:56;;;;;;;10.93;4.72;;;;;;;24.23;66.11;99810.44;7737522;32;37274;-72
2022/08/25 06:50:12;;;;;;;12.18;5.30;;;;;;;24.15;66.99;99803.94;7737559;32;39469;-72
2022/08/25 06:54:28;;;;;;;11.63;4.82;;;;;;;24.33;67.52;99801.53;7737285;32;39862;-71
2022/08/25 06:58:44;;;;;;;15.63;6.12;;;;;;;23.72;69.57;99802.87;7749284;32;37886;-72
2022/08/25 07:03:01;;;;;;;14.77;5.90;;;;;;;24.10;67.66;99807.00;7738660;32;37194;-72
2022/08/25 07:07:18;;;;;;;13.82;5.85;;;;;;;24.29;66.71;99809.00;7763562;32;39252;-72
2022/08/25 07:11:34;;;;;;;19.37;5.65;;;;;;;24.69;65.19;99821.81;7764002;32;39920;-72
2022/08/25 07:15:53;;;;;;;21.20;6.60;;;;;;;24.49;65.05;99818.22;7763582;32;37878;-72
2022/08/25 07:20:10;;;;;;;17.92;5.60;;;;;;;24.34;64.63;99816.28;7763451;32;37458;-72
2022/08/25 07:24:28;;;;;;;12.80;5.32;;;;;;;24.68;63.08;99817.44;7763517;32;38618;-72
2022/08/25 07:28:45;;;;;;;16.45;6.37;;;;;;;24.96;63.00;99810.81;7763592;32;40771;-72
2022/08/25 07:33:02;;;;;;;14.85;5.55;;;;;;;25.06;63.98;99812.19;7762175;32;38637;-73
2022/08/25 07:37:22;;;;;;;18.55;5.82;;;;;;;25.19;63.58;99812.84;7785016;32;37934;-73
2022/08/25 07:41:58;;;;;;;14.82;5.18;;;;;;;25.08;64.96;99812.63;7793667;32;40641;-73
2022/08/25 07:46:16;;;;;;;16.65;5.47;;;;;;;25.60;62.12;99808.41;7786640;32;42222;-73
2022/08/25 07:50:34;;;;;;;16.80;5.40;;;;;;;25.86;60.98;99809.63;7752262;32;39104;-72
2022/08/25 07:54:52;;;;;;;15.45;5.47;;;;;;;25.84;60.76;99801.59;7739644;32;37159;-77
2022/08/25 07:59:09;;;;;;;14.77;5.55;;;;;;;25.67;60.76;99802.13;7739633;32;39560;-79
2022/08/25 08:03:28;;;;;;;16.95;5.12;;;;;;;25.96;59.41;99791.47;7726171;32;40328;-79
2022/08/25 08:08:04;;;;;;;14.57;5.20;;;;;;;25.36;60.67;99809.59;7739501;32;36742;-79
2022/08/25 08:12:22;;;;;;;19.05;5.15;;;;;;;26.20;60.42;99802.19;7739548;32;37820;-79
2022/08/25 08:16:38;;;;;;;17.70;5.25;;;;;;;26.59;59.83;99799.06;7746399;32;39425;-72
2022/08/25 08:20:56;;;;;;;13.07;4.78;;;;;;;26.71;58.80;99803.66;7766588;32;39449;-72
2022/08/25 08:25:13;;;;;;;15.13;4.87;;;;;;;26.81;60.38;99795.78;7757925;32;39116;-72
2022/08/25 08:29:36;;;;;;;14.50;5.37;;;;;;;26.65;59.62;99795.97;7746266;32;38022;-72
2022/08/25 08:33:54;;;;;;;16.87;5.03;;;;;;;26.91;59.21;99798.69;7766288;32;39552;-73
2022/08/25 08:38:11;;;;;;;18.73;5.97;;;;;;;27.26;58.00;99797.44;7765936;32;40753;-73
2022/08/25 08:42:50;;;;;;;11.73;5.07;;;;;;;27.32;57.92;99793.16;7765171;32;37987;-79
2022/08/25 08:47:35;;;;;;;14.65;5.25;;;;;;;26.84;58.66;99792.19;7765135;32;38060;-74
2022/08/25 08:51:58;;;;;;;14.60;5.65;;;;;;;27.54;59.49;99801.72;7765650;32;40144;-74
2022/08/25 08:56:22;;;;;;;16.33;5.12;;;;;;;27.46;58.24;99792.47;7740622;32;39882;-73
2022/08/25 09:00:51;;;;;;;14.27;5.40;;;;;;;27.25;59.48;99786.63;7727653;32;37940;-73
2022/08/25 09:05:11;;;;;;;12.48;5.20;;;;;;;27.37;59.07;99783.59;7739807;32;37150;-71
2022/08/25 09:09:34;;;;;;;21.95;5.70;;;;;;;27.78;57.71;99779.91;7787725;32;39800;-72
2022/08/25 09:14:17;;;;;;;15.73;5.43;;;;;;;27.81;57.04;99784.75;7748459;32;40002;-72
2022/08/25 09:18:50;;;;;;;14.82;5.18;;;;;;;28.01;57.72;99772.13;7761657;32;38375;-73
2022/08/25 09:23:25;;;;;;;14.00;5.00;;;;;;;28.14;56.76;99769.78;7762525;32;37163;-73
2022/08/25 09:28:06;;;;;;;15.23;5.00;;;;;;;27.56;57.83;99762.94;7738893;32;39063;-73
2022/08/25 09:32:23;;;;;;;11.10;4.28;;;;;;;28.01;57.28;99752.50;7709974;32;39959;-72
2022/08/25 09:36:49;;;;;;;12.88;4.22;;;;;;;28.39;56.84;99758.69;7758308;32;38693;-73
2022/08/25 09:41:07;;;;;;;11.27;4.75;;;;;;;28.65;54.49;99751.22;7735017;32;37778;-73
2022/08/25 09:45:34;;;;;;;17.30;4.50;;;;;;;28.77;54.59;99753.66;7747995;32;39801;-73
2022/08/25 09:50:01;;;;;;;12.80;3.75;;;;;;;28.90;54.59;99739.25;7746153;32;38908;-77
2022/08/25 09:54:21;;;;;;;9.00;3.70;;;;;;;28.94;54.92;99740.03;7765339;32;37979;-77
2022/08/25 09:58:40;;;;;;;8.65;3.87;;;;;;;29.37;53.54;99738.12;7735851;32;37054;-77
2022/08/25 10:03:20;;;;;;;9.95;3.67;;;;;;;29.59;51.72;99733.28;7761498;32;39318;-77
2022/08/25 10:07:47;;;;;;;7.72;3.33;;;;;;;29.90;50.28;99719.63;7755160;32;38488;-79
2022/08/25 10:12:38;;;;;;;9.13;3.37;;;;;;;30.18;46.04;99709.47;7734613;32;37986;-78
2022/08/25 10:17:23;;;;;;;8.40;3.03;;;;;;;29.53;47.45;99718.06;7726534;32;38065;-74
2022/08/25 10:21:42;;;;;;;5.37;3.20;;;;;;;30.25;48.40;99705.84;7757069;32;39366;-75
2022/08/25 10:26:07;;;;;;;10.40;3.03;;;;;;;30.03;45.67;99702.31;7736746;32;40785;-76
2022/08/25 10:30:58;;;;;;;8.63;3.22;;;;;;;29.83;46.38;99699.19;7737291;32;37924;-75
2022/08/25 10:35:21;;;;;;;6.22;3.33;;;;;;;30.09;47.11;99703.50;7736706;32;37694;-69
2022/08/25 10:39:42;;;;;;;10.90;3.72;;;;;;;29.93;47.15;99698.34;7722837;32;39391;-70
2022/08/25 10:49:29;;;;;;;5.50;2.72;;;;;;;30.34;45.53;99684.53;7705751;32;37708;-71
2022/08/25 10:54:15;;;;;;;7.60;3.35;;;;;;;30.68;42.77;99669.91;7737475;32;36986;-69
2022/08/25 10:58:47;;;;;;;6.95;3.55;;;;;;;31.05;43.13;99668.44;7736568;32;39919;-69
2022/08/25 11:03:25;;;;;;;7.20;2.90;;;;;;;31.38;42.97;99668.97;7737037;32;41013;-70
2022/08/25 11:08:12;;;;;;;8.52;3.22;;;;;;;31.79;41.67;99665.34;7737059;32;38017;-69
2022/08/25 11:12:33;;;;;;;8.93;3.58;;;;;;;31.46;40.35;99658.44;7725342;32;37151;-69
2022/08/25 11:16:56;;;;;;;7.18;3.12;;;;;;;32.41;39.31;99665.41;7737036;32;39392;-70
2022/08/25 11:21:17;;;;;;;11.73;3.05;;;;;;;31.42;40.48;99658.44;7736875;32;40041;-69
2022/08/25 11:25:42;;;;;;;6.35;3.17;;;;;;;32.04;39.83;99652.97;7711246;32;39120;-70
2022/08/25 11:30:03;;;;;;;8.55;3.00;;;;;;;32.66;40.41;99642.50;7736715;32;37785;-70
2022/08/25 11:34:22;;;;;;;5.80;3.10;;;;;;;32.04;38.33;99641.69;7723647;32;39428;-70
2022/08/25 11:38:55;;;;;;;9.88;3.40;;;;;;;31.98;39.96;99632.12;7736275;32;40801;-70
2022/08/25 11:43:26;;;;;;;7.37;2.72;;;;;;;32.56;38.10;99627.31;7736322;32;38180;-71
2022/08/25 11:48:20;;;;;;;7.28;2.90;;;;;;;32.96;39.03;99620.25;7736081;32;37359;-71
2022/08/25 11:52:47;;;;;;;7.37;2.97;;;;;;;33.56;36.51;99604.25;7723813;32;40497;-69
2022/08/25 11:57:15;;;;;;;17.60;3.33;;;;;;;33.17;37.28;99602.16;7723094;32;40010;-70
2022/08/25 12:01:39;;;;;;;9.27;2.60;;;;;;;33.12;36.41;99601.41;7735768;32;37625;-70
2022/08/25 12:06:15;;;;;;;7.40;3.08;;;;;;;33.40;36.63;99593.66;7735629;32;37617;-70
2022/08/25 12:10:51;;;;;;;6.50;2.80;;;;;;;33.54;35.93;99592.59;7735647;32;39280;-71
2022/08/25 12:15:19;;;;;;;9.20;3.00;;;;;;;33.27;38.87;99599.16;7735333;32;40018;-69
2022/08/25 12:19:35;;;;;;;7.00;2.97;;;;;;;33.04;36.45;99599.13;7735370;32;38621;-70
2022/08/25 12:24:14;;;;;;;8.63;3.05;;;;;;;32.44;38.20;99601.69;7738419;32;36803;-69
2022/08/25 12:28:41;;;;;;;11.75;2.60;;;;;;;32.81;38.43;99594.31;7739345;32;39681;-69
2022/08/25 12:33:19;;;;;;;9.93;2.72;;;;;;;32.38;36.96;99592.91;7739222;32;40025;-70
2022/08/25 12:37:51;;;;;;;8.30;2.95;;;;;;;32.80;37.51;99585.03;7738970;32;38497;-70
2022/08/25 12:42:21;;;;;;;9.20;3.00;;;;;;;33.18;36.87;99576.31;7727260;32;37836;-70
2022/08/25 12:46:43;;;;;;;7.35;3.45;;;;;;;33.21;36.47;99574.66;7715172;32;39940;-70
2022/08/25 12:51:16;;;;;;;9.82;3.05;;;;;;;32.62;37.87;99579.69;7725288;32;39857;-70
2022/08/25 12:55:32;;;;;;;7.45;3.00;;;;;;;32.73;37.36;99579.50;7738907;32;37935;-71
2022/08/25 12:59:55;;;;;;;9.27;2.83;;;;;;;33.09;36.68;99574.03;7725084;32;37759;-69
2022/08/25 13:04:23;;;;;;;7.53;2.62;;;;;;;33.00;37.88;99575.84;7725424;32;39860;-75
2022/08/25 13:08:44;;;;;;;6.00;3.10;;;;;;;33.36;35.83;99575.19;7738683;32;40870;-72
2022/08/25 13:13:16;;;;;;;8.38;3.12;;;;;;;32.92;37.31;99573.09;7738667;32;38772;-72
2022/08/25 13:17:34;;;;;;;11.38;3.00;;;;;;;33.02;37.07;99567.72;7725241;32;38099;-72
2022/08/25 13:21:50;;;;;;;8.15;3.15;;;;;;;32.48;37.33;99569.41;7712183;32;39307;-72
2022/08/25 13:26:20;;;;;;;7.20;3.08;;;;;;;31.98;38.64;99556.00;7725183;32;40629;-71
2022/08/25 13:30:37;;;;;;;11.57;2.67;;;;;;;32.73;37.00;99562.56;7725546;32;38771;-72
2022/08/25 13:35:10;;;;;;;12.23;3.17;;;;;;;32.86;37.12;99552.25;7738127;32;37918;-72
2022/08/25 13:39:32;;;;;;;9.93;2.58;;;;;;;33.75;36.19;99536.87;7738165;32;39464;-72
2022/08/25 13:44:08;;;;;;;6.90;2.83;;;;;;;34.65;35.16;99532.78;7737934;32;41355;-72
2022/08/25 13:48:45;;;;;;;13.00;3.03;;;;;;;35.28;33.80;99539.28;7738242;32;38145;-73
2022/08/25 13:53:10;;;;;;;7.97;2.92;;;;;;;35.59;32.42;99533.91;7738221;32;37129;-72
2022/08/25 13:57:29;;;;;;;11.18;2.87;;;;;;;35.62;32.23;99533.03;7725113;32;39423;-72
2022/08/25 14:01:47;;;;;;;7.68;2.92;;;;;;;35.11;32.29;99530.78;7738290;32;39807;-71
2022/08/25 14:06:06;;;;;;;11.82;3.45;;;;;;;34.12;33.83;99534.88;7738174;32;37975;-72
2022/08/25 14:10:41;;;;;;;11.98;3.20;;;;;;;34.85;33.91;99524.19;7738087;32;37963;-71
2022/08/25 14:15:12;;;;;;;7.85;2.80;;;;;;;34.42;35.28;99526.06;7738054;32;39506;-71
2022/08/25 14:19:29;;;;;;;8.77;3.10;;;;;;;34.56;35.32;99529.78;7738043;32;39980;-71
2022/08/25 14:23:45;;;;;;;9.00;2.90;;;;;;;33.15;36.04;99542.50;7724024;32;38663;-71
2022/08/25 14:28:04;;;;;;;9.15;3.00;;;;;;;34.08;36.35;99525.66;7737594;32;38554;-72
2022/08/25 14:32:31;;;;;;;12.80;3.58;;;;;;;34.71;34.15;99524.59;7737743;32;39285;-72
2022/08/25 14:36:48;;;;;;;7.12;2.95;;;;;;;34.86;34.60;99525.00;7737426;32;40759;-72
2022/08/25 14:41:05;;;;;;;12.25;3.00;;;;;;;35.44;32.74;99513.69;7737345;32;37640;-72
2022/08/25 14:45:26;;;;;;;11.57;3.33;;;;;;;35.13;32.77;99511.31;7723444;32;39028;-72
2022/08/25 14:49:44;;;;;;;8.57;2.92;;;;;;;34.54;33.45;99510.41;7737457;32;39147;-72
2022/08/25 14:54:04;;;;;;;11.85;2.92;;;;;;;34.15;35.23;99514.16;7737402;32;40733;-72
2022/08/25 14:58:21;;;;;;;9.95;3.22;;;;;;;34.22;35.25;99508.38;7723810;32;37924;-72
2022/08/25 15:02:44;;;;;;;8.88;2.80;;;;;;;34.28;35.04;99514.31;7737310;32;37788;-72
2022/08/25 15:09:06;;;;;;;9.93;3.03;;;;;;;34.13;34.01;99510.97;7724214;32;39065;-72
2022/08/25 15:11:51;;;;;;;11.95;3.12;;;;;;;34.38;35.25;99508.38;7737120;32;39893;-72
2022/08/25 15:16:10;;;;;;;9.63;3.05;;;;;;;35.03;35.09;99501.09;7736941;32;38438;-72
2022/08/25 15:20:26;;;;;;;7.07;2.62;;;;;;;35.14;33.22;99509.28;7723222;32;37109;-72
2022/08/25 15:24:44;;;;;;;9.93;3.28;;;;;;;35.62;32.73;99501.06;7736746;32;40305;-72
2022/08/25 15:29:00;;;;;;;13.13;3.12;;;;;;;35.65;34.67;99500.13;7736688;32;41567;-72
2022/08/25 15:33:16;;;;;;;10.02;3.35;;;;;;;35.47;33.58;99501.47;7736551;32;38714;-72
2022/08/25 15:37:34;;;;;;;14.15;3.30;;;;;;;35.68;32.61;99494.34;7736349;32;37058;-72
2022/08/25 15:41:52;;;;;;;9.98;2.75;;;;;;;35.80;33.13;99494.84;7736405;32;40105;-72
2022/08/25 15:46:08;;;;;;;8.48;2.90;;;;;;;35.61;33.47;99500.25;7736201;32;39945;-74
2022/08/25 15:50:25;;;;;;;12.07;2.90;;;;;;;35.31;33.29;99487.38;7722316;32;37656;-73
2022/08/25 15:54:41;;;;;;;15.65;3.28;;;;;;;35.57;32.28;99482.56;7736178;32;37912;-74
2022/08/25 15:59:02;;;;;;;13.57;3.20;;;;;;;35.83;31.96;99486.25;7739217;32;38361;-74
2022/08/25 16:03:18;;;;;;;7.37;2.72;;;;;;;35.71;33.77;99487.00;7726214;32;38894;-75
2022/08/25 16:07:34;;;;;;;16.35;7.25;;;;;;;35.49;32.70;99479.12;7739412;32;37908;-74
2022/08/25 16:11:51;;;;;;;17.70;8.00;;;;;;;35.06;33.87;99476.72;7739447;32;37509;-73
2022/08/25 16:16:12;;;;;;;18.45;6.87;;;;;;;35.19;34.20;99474.72;7739482;32;39429;-73
2022/08/25 16:20:29;;;;;;;19.52;10.73;;;;;;;35.13;33.79;99471.66;7739370;32;40907;-73
2022/08/25 16:24:45;;;;;;;25.23;13.73;;;;;;;34.83;33.82;99464.41;7739036;32;37826;-74
2022/08/25 16:29:03;;;;;;;38.45;22.37;;;;;;;34.72;35.34;99469.53;7739103;32;37526;-75
2022/08/25 16:33:21;;;;;;;22.20;10.00;;;;;;;34.47;35.64;99470.97;7739196;32;39042;-73
2022/08/25 16:37:38;;;;;;;8.95;4.00;;;;;;;34.33;35.64;99471.34;7738994;32;40069;-74
2022/08/25 16:41:55;;;;;;;14.48;4.18;;;;;;;34.07;35.93;99476.78;7739049;32;38201;-79
2022/08/25 16:46:14;;;;;;;10.52;3.78;;;;;;;33.85;36.73;99468.78;7739061;32;36883;-81
2022/08/25 16:50:31;;;;;;;9.73;3.62;;;;;;;33.81;37.52;99479.41;7738999;32;39772;-80
2022/08/25 16:59:25;;;;;;;12.00;3.50;;;;;;;33.63;38.79;99476.94;7738906;32;37889;-73
2022/08/25 17:03:42;;;;;;;13.35;3.70;;;;;;;33.38;39.56;99491.59;7738929;32;36850;-74
2022/08/25 17:12:34;;;;;;;10.57;3.47;;;;;;;33.06;39.63;99492.22;7738835;32;40808;-74
2022/08/25 17:16:53;;;;;;;12.30;4.00;;;;;;;32.80;39.93;99489.06;7738570;32;38729;-74
2022/08/25 17:21:11;;;;;;;10.18;3.83;;;;;;;32.71;40.68;99488.84;7739009;32;37130;-73
2022/08/25 17:25:35;;;;;;;6.15;3.40;;;;;;;32.57;41.54;99493.47;7725678;32;39461;-71
2022/08/25 17:29:56;;;;;;;7.87;3.35;;;;;;;32.22;42.86;99488.41;7738327;32;40940;-72
2022/08/25 17:34:14;;;;;;;9.32;3.45;;;;;;;31.83;42.95;99497.00;7738273;32;37748;-72
2022/08/25 17:38:32;;;;;;;11.35;3.70;;;;;;;31.58;43.19;99496.53;7738429;32;36671;-72
2022/08/25 17:42:48;;;;;;;13.10;4.18;;;;;;;31.21;44.32;99495.38;7738450;32;40088;-70
2022/08/25 17:47:06;;;;;;;17.60;4.10;;;;;;;30.89;45.07;99499.28;7738224;32;41002;-73
2022/08/25 17:51:22;;;;;;;11.43;3.47;;;;;;;30.56;46.03;99501.59;7738212;32;37467;-73
2022/08/25 17:55:40;;;;;;;11.12;3.65;;;;;;;30.34;45.91;99510.19;7738183;32;38039;-73
2022/08/25 17:59:58;;;;;;;9.10;3.50;;;;;;;30.00;46.97;99517.66;7738243;32;40173;-81
2022/08/25 18:04:17;;;;;;;10.10;3.65;;;;;;;29.80;47.20;99518.16;7738276;32;39820;-81
2022/08/25 18:08:43;;;;;;;11.12;4.15;;;;;;;29.80;47.16;99523.00;7693156;32;1451850;-82
2022/08/25 18:13:06;;;;;;;10.63;3.62;;;;;;;29.56;47.67;99523.47;7725033;32;37129;-80
2022/08/25 18:17:22;;;;;;;13.50;4.50;;;;;;;29.52;48.07;99531.09;7724055;32;39460;-71
2022/08/25 18:21:41;;;;;;;17.02;4.50;;;;;;;29.43;47.82;99527.94;7736079;32;39989;-70
2022/08/25 18:25:58;;;;;;;11.60;4.28;;;;;;;29.24;48.36;99536.84;7735886;32;38686;-71
2022/08/25 18:30:16;;;;;;;18.15;4.12;;;;;;;28.96;49.20;99538.44;7753907;32;37137;-70
2022/08/25 18:34:32;;;;;;;15.45;3.92;;;;;;;28.81;49.60;99526.44;7757513;32;40087;-71
2022/08/25 18:43:28;;;;;;;12.95;4.00;;;;;;;28.73;49.46;99539.66;7742416;32;37734;-71
2022/08/25 18:47:55;;;;;;;12.15;4.03;;;;;;;28.59;49.75;99545.28;7740957;32;37027;-70
2022/08/25 18:52:11;;;;;;;10.90;3.60;;;;;;;28.41;50.08;99540.44;7743797;32;39953;-70
2022/08/25 18:56:28;;;;;;;9.38;3.95;;;;;;;28.32;50.86;99536.41;7734034;32;39537;-70
2022/08/25 19:00:44;;;;;;;13.38;4.20;;;;;;;28.24;51.23;99541.22;7720583;32;37626;-70
2022/08/25 19:05:00;;;;;;;12.10;3.70;;;;;;;28.05;51.88;99554.38;7774040;32;37038;-70
2022/08/25 19:09:22;;;;;;;11.75;4.07;;;;;;;27.96;52.13;99548.38;7760063;32;39443;-72
2022/08/25 19:13:39;;;;;;;13.75;4.70;;;;;;;27.74;52.89;99550.25;7738567;32;40838;-71
2022/08/25 19:17:57;;;;;;;11.90;4.50;;;;;;;27.68;52.87;99551.81;7742381;32;38038;-71
2022/08/25 19:22:14;;;;;;;9.95;4.00;;;;;;;27.69;51.91;99548.63;7739706;32;36790;-72
2022/08/25 19:26:51;;;;;;;12.55;3.85;;;;;;;27.60;52.70;99550.22;7742431;32;40700;-72
2022/08/25 19:31:09;;;;;;;7.47;3.53;;;;;;;27.57;52.83;99546.19;7755936;32;39663;-74
2022/08/25 19:35:38;;;;;;;14.55;4.12;;;;;;;27.53;52.45;99548.97;7766555;32;37867;-73
2022/08/25 19:39:56;;;;;;;12.95;3.58;;;;;;;27.41;52.62;99540.91;7766671;32;37110;-74
2022/08/25 19:44:19;;;;;;;9.05;4.47;;;;;;;27.32;52.63;99541.28;7762258;32;40061;-75
2022/08/25 19:48:35;;;;;;;15.20;4.68;;;;;;;27.22;52.95;99536.41;7751444;32;39179;-75
2022/08/25 19:52:52;;;;;;;12.55;4.28;;;;;;;27.18;53.08;99541.16;7743042;32;37708;-74
2022/08/25 19:57:10;;;;;;;10.77;4.25;;;;;;;26.98;54.11;99544.22;7754090;32;38468;-74
2022/08/25 20:01:26;;;;;;;9.13;3.90;;;;;;;27.02;54.08;99540.66;7735009;32;39426;-74
2022/08/25 20:05:42;;;;;;;13.30;4.12;;;;;;;26.95;54.11;99547.00;7759969;32;40782;-75
2022/08/25 20:10:06;;;;;;;8.48;3.78;;;;;;;26.86;54.57;99547.34;7748441;32;38655;-73
2022/08/25 20:14:28;;;;;;;17.02;4.65;;;;;;;26.87;54.24;99543.37;7739038;32;37162;-73
2022/08/25 20:18:44;;;;;;;16.50;4.30;;;;;;;26.64;55.30;99542.78;7739714;32;39346;-73
2022/08/25 20:27:40;;;;;;;10.18;4.37;;;;;;;26.69;55.15;99548.81;7765459;32;37467;-74
2022/08/25 20:31:56;;;;;;;10.07;4.40;;;;;;;26.61;55.60;99545.13;7765593;32;38156;-76
2022/08/25 20:36:16;;;;;;;11.43;4.57;;;;;;;26.42;56.33;99539.75;7741845;32;39310;-74
2022/08/25 20:40:33;;;;;;;10.63;4.10;;;;;;;26.31;56.79;99550.03;7746231;32;38598;-74
2022/08/25 20:44:52;;;;;;;13.10;4.45;;;;;;;26.32;56.62;99546.03;7748573;32;37389;-74